sensor_id;sensor_type;location;lat;lon;timestamp;pressure;altitude;pressure_sealevel;temperature;humidity
12775;BME280;6451;42.630;23.382;2022-10-22T00:00:37;95251.50;;;7.86;100.00
12775;BME280;6451;42.630;23.382;2022-10-22T00:03:06;95210.03;;;7.68;100.00
12775;BME280;6451;42.630;23.382;2022-10-22T00:05:35;95252.75;;;7.89;100.00
12775;BME280;6451;42.630;23.382;2022-10-22T00:08:03;95223.59;;;7.55;100.00
12775;BME280;6451;42.630;23.382;2022-10-22T00:10:30;95253.22;;;7.82;100.00
12775;BME280;6451;42.630;23.382;2022-10-22T00:12:57;95091.44;;;6.77;100.00
12775;BME280;6451;42.630;23.382;2022-10-22T00:15:24;95260.81;;;7.80;100.00
12775;BME280;6451;42.630;23.382;2022-10-22T00:17:50;95268.84;;;7.71;100.00
12775;BME280;6451;42.630;23.382;2022-10-22T00:20:19;95148.06;;;6.91;100.00
12775;BME280;6451;42.630;23.382;2022-10-22T00:22:47;95249.59;;;7.50;100.00
12775;BME280;6451;42.630;23.382;2022-10-22T00:25:14;95265.28;;;7.62;100.00
12775;BME280;6451;42.630;23.382;2022-10-22T00:27:42;95270.56;;;7.67;100.00
12775;BME280;6451;42.630;23.382;2022-10-22T00:30:10;95264.84;;;7.69;100.00
12775;BME280;6451;42.630;23.382;2022-10-22T00:32:38;95255.03;;;7.73;100.00
12775;BME280;6451;42.630;23.382;2022-10-22T00:35:05;95235.28;;;7.50;100.00
12775;BME280;6451;42.630;23.382;2022-10-22T00:37:35;95249.94;;;7.71;100.00
12775;BME280;6451;42.630;23.382;2022-10-22T00:40:02;95243.84;;;7.66;100.00
12775;BME280;6451;42.630;23.382;2022-10-22T00:42:29;95193.06;;;7.32;100.00
12775;BME280;6451;42.630;23.382;2022-10-22T00:45:15;95235.06;;;7.60;100.00
12775;BME280;6451;42.630;23.382;2022-10-22T00:47:45;95238.19;;;7.53;100.00
12775;BME280;6451;42.630;23.382;2022-10-22T00:50:16;95218.31;;;7.36;100.00
12775;BME280;6451;42.630;23.382;2022-10-22T00:52:46;95212.34;;;7.25;100.00
12775;BME280;6451;42.630;23.382;2022-10-22T00:55:14;94971.44;;;5.75;100.00
12775;BME280;6451;42.630;23.382;2022-10-22T00:57:41;95186.25;;;7.20;100.00
12775;BME280;6451;42.630;23.382;2022-10-22T01:00:10;95191.31;;;7.13;100.00
12775;BME280;6451;42.630;23.382;2022-10-22T01:02:37;95225.22;;;7.28;100.00
12775;BME280;6451;42.630;23.382;2022-10-22T01:05:05;94896.50;;;5.27;100.00
12775;BME280;6451;42.630;23.382;2022-10-22T01:07:35;95240.63;;;7.41;100.00
12775;BME280;6451;42.630;23.382;2022-10-22T01:10:14;95209.25;;;7.32;100.00
12775;BME280;6451;42.630;23.382;2022-10-22T01:12:47;95062.34;;;6.38;100.00
12775;BME280;6451;42.630;23.382;2022-10-22T01:15:24;95209.72;;;7.34;100.00
12775;BME280;6451;42.630;23.382;2022-10-22T01:17:58;95082.97;;;6.56;100.00
12775;BME280;6451;42.630;23.382;2022-10-22T01:20:43;95176.81;;;7.09;100.00
12775;BME280;6451;42.630;23.382;2022-10-22T01:23:24;95131.75;;;6.96;100.00
12775;BME280;6451;42.630;23.382;2022-10-22T01:26:02;95192.19;;;7.09;100.00
12775;BME280;6451;42.630;23.382;2022-10-22T01:28:56;95201.16;;;7.18;100.00
12775;BME280;6451;42.630;23.382;2022-10-22T01:31:26;95198.16;;;7.19;100.00
12775;BME280;6451;42.630;23.382;2022-10-22T01:33:56;95200.00;;;7.10;100.00
12775;BME280;6451;42.630;23.382;2022-10-22T01:36:24;95201.31;;;6.99;100.00
12775;BME280;6451;42.630;23.382;2022-10-22T01:38:52;95200.31;;;6.95;100.00
12775;BME280;6451;42.630;23.382;2022-10-22T01:41:19;95187.75;;;6.90;100.00
12775;BME280;6451;42.630;23.382;2022-10-22T01:43:48;95163.47;;;6.77;100.00
12775;BME280;6451;42.630;23.382;2022-10-22T01:46:20;94955.00;;;5.35;100.00
12775;BME280;6451;42.630;23.382;2022-10-22T01:48:58;95181.81;;;6.88;100.00
12775;BME280;6451;42.630;23.382;2022-10-22T01:51:43;95182.75;;;6.84;100.00
12775;BME280;6451;42.630;23.382;2022-10-22T01:54:24;95183.53;;;6.84;100.00
12775;BME280;6451;42.630;23.382;2022-10-22T01:57:00;95181.03;;;6.74;100.00
12775;BME280;6451;42.630;23.382;2022-10-22T01:59:41;95191.34;;;6.86;100.00
12775;BME280;6451;42.630;23.382;2022-10-22T02:02:19;95068.84;;;6.09;100.00
12775;BME280;6451;42.630;23.382;2022-10-22T02:04:53;95152.88;;;6.66;100.00
12775;BME280;6451;42.630;23.382;2022-10-22T02:07:27;95186.00;;;7.08;100.00
12775;BME280;6451;42.630;23.382;2022-10-22T02:09:55;95161.81;;;7.03;100.00
12775;BME280;6451;42.630;23.382;2022-10-22T02:12:24;95187.09;;;7.07;100.00
12775;BME280;6451;42.630;23.382;2022-10-22T02:14:56;95191.97;;;7.19;100.00
12775;BME280;6451;42.630;23.382;2022-10-22T02:17:27;95194.81;;;7.14;100.00
12775;BME280;6451;42.630;23.382;2022-10-22T02:19:57;95103.28;;;6.54;100.00
12775;BME280;6451;42.630;23.382;2022-10-22T02:22:26;95036.03;;;6.21;100.00
12775;BME280;6451;42.630;23.382;2022-10-22T02:24:54;95123.41;;;6.70;100.00
12775;BME280;6451;42.630;23.382;2022-10-22T02:27:25;95125.09;;;6.80;100.00
12775;BME280;6451;42.630;23.382;2022-10-22T02:30:00;95172.69;;;7.12;100.00
12775;BME280;6451;42.630;23.382;2022-10-22T02:32:32;95166.63;;;7.06;100.00
12775;BME280;6451;42.630;23.382;2022-10-22T02:35:00;95159.13;;;6.89;100.00
12775;BME280;6451;42.630;23.382;2022-10-22T02:37:27;95181.94;;;6.83;100.00
12775;BME280;6451;42.630;23.382;2022-10-22T02:39:55;95179.34;;;6.64;100.00
12775;BME280;6451;42.630;23.382;2022-10-22T02:42:23;95175.56;;;6.65;100.00
12775;BME280;6451;42.630;23.382;2022-10-22T02:44:53;95198.84;;;6.75;100.00
12775;BME280;6451;42.630;23.382;2022-10-22T02:47:21;95125.53;;;6.46;100.00
12775;BME280;6451;42.630;23.382;2022-10-22T02:49:49;94920.16;;;4.97;100.00
12775;BME280;6451;42.630;23.382;2022-10-22T02:52:16;95211.91;;;6.82;100.00
12775;BME280;6451;42.630;23.382;2022-10-22T02:54:43;95212.81;;;6.77;100.00
12775;BME280;6451;42.630;23.382;2022-10-22T02:57:10;95206.72;;;6.72;100.00
12775;BME280;6451;42.630;23.382;2022-10-22T02:59:37;95212.19;;;6.66;100.00
12775;BME280;6451;42.630;23.382;2022-10-22T03:02:04;95207.72;;;6.62;100.00
12775;BME280;6451;42.630;23.382;2022-10-22T03:04:32;95205.81;;;6.62;100.00
12775;BME280;6451;42.630;23.382;2022-10-22T03:07:00;95173.97;;;6.37;100.00
12775;BME280;6451;42.630;23.382;2022-10-22T03:09:27;95154.47;;;6.26;100.00
12775;BME280;6451;42.630;23.382;2022-10-22T03:11:54;95201.63;;;6.56;100.00
12775;BME280;6451;42.630;23.382;2022-10-22T03:14:21;95047.91;;;5.46;100.00
12775;BME280;6451;42.630;23.382;2022-10-22T03:16:48;95210.63;;;6.52;100.00
12775;BME280;6451;42.630;23.382;2022-10-22T03:19:15;95211.91;;;6.54;100.00
12775;BME280;6451;42.630;23.382;2022-10-22T03:21:47;95205.72;;;6.54;100.00
12775;BME280;6451;42.630;23.382;2022-10-22T03:24:17;95153.09;;;6.29;100.00
12775;BME280;6451;42.630;23.382;2022-10-22T03:26:49;95207.50;;;6.58;100.00
12775;BME280;6451;42.630;23.382;2022-10-22T03:29:18;95196.81;;;6.67;100.00
12775;BME280;6451;42.630;23.382;2022-10-22T03:31:48;95176.97;;;6.63;100.00
12775;BME280;6451;42.630;23.382;2022-10-22T03:34:16;95192.03;;;6.50;100.00
12775;BME280;6451;42.630;23.382;2022-10-22T03:36:44;95177.56;;;6.46;100.00
12775;BME280;6451;42.630;23.382;2022-10-22T03:39:13;95202.72;;;6.41;100.00
12775;BME280;6451;42.630;23.382;2022-10-22T03:41:43;95142.31;;;6.15;100.00
12775;BME280;6451;42.630;23.382;2022-10-22T03:44:11;95193.63;;;6.37;100.00
12775;BME280;6451;42.630;23.382;2022-10-22T03:46:38;95186.66;;;6.36;100.00
12775;BME280;6451;42.630;23.382;2022-10-22T03:49:05;95203.72;;;6.32;100.00
12775;BME280;6451;42.630;23.382;2022-10-22T03:51:33;95149.38;;;6.11;100.00
12775;BME280;6451;42.630;23.382;2022-10-22T03:54:02;95182.44;;;6.30;100.00
12775;BME280;6451;42.630;23.382;2022-10-22T03:56:29;95075.16;;;5.58;100.00
12775;BME280;6451;42.630;23.382;2022-10-22T03:58:56;95153.97;;;6.10;100.00
12775;BME280;6451;42.630;23.382;2022-10-22T04:01:25;95204.19;;;6.34;100.00
12775;BME280;6451;42.630;23.382;2022-10-22T04:03:52;95197.28;;;6.28;100.00
12775;BME280;6451;42.630;23.382;2022-10-22T04:06:19;95161.16;;;6.01;100.00
12775;BME280;6451;42.630;23.382;2022-10-22T04:08:47;95173.53;;;6.16;100.00
12775;BME280;6451;42.630;23.382;2022-10-22T04:11:15;95190.03;;;6.42;100.00
12775;BME280;6451;42.630;23.382;2022-10-22T04:13:43;95186.84;;;6.40;100.00
12775;BME280;6451;42.630;23.382;2022-10-22T04:16:12;95169.66;;;6.36;100.00
12775;BME280;6451;42.630;23.382;2022-10-22T04:18:40;95179.84;;;6.39;100.00
12775;BME280;6451;42.630;23.382;2022-10-22T04:21:09;95148.38;;;5.93;100.00
12775;BME280;6451;42.630;23.382;2022-10-22T04:23:36;95169.34;;;6.10;100.00
12775;BME280;6451;42.630;23.382;2022-10-22T04:26:06;95176.44;;;6.20;100.00
12775;BME280;6451;42.630;23.382;2022-10-22T04:28:34;95170.53;;;6.18;100.00
12775;BME280;6451;42.630;23.382;2022-10-22T04:31:06;95163.75;;;6.06;100.00
12775;BME280;6451;42.630;23.382;2022-10-22T04:33:33;95150.97;;;5.98;100.00
12775;BME280;6451;42.630;23.382;2022-10-22T04:36:05;95166.16;;;6.08;100.00
12775;BME280;6451;42.630;23.382;2022-10-22T04:38:33;95136.03;;;5.87;100.00
12775;BME280;6451;42.630;23.382;2022-10-22T04:41:07;95174.81;;;6.05;100.00
12775;BME280;6451;42.630;23.382;2022-10-22T04:43:36;95162.25;;;6.00;100.00
12775;BME280;6451;42.630;23.382;2022-10-22T04:46:03;95184.81;;;6.18;100.00
12775;BME280;6451;42.630;23.382;2022-10-22T04:48:30;95185.72;;;6.13;100.00
12775;BME280;6451;42.630;23.382;2022-10-22T04:50:57;95100.00;;;5.69;100.00
12775;BME280;6451;42.630;23.382;2022-10-22T04:53:26;95164.66;;;6.16;100.00
12775;BME280;6451;42.630;23.382;2022-10-22T04:55:54;95145.91;;;6.24;100.00
12775;BME280;6451;42.630;23.382;2022-10-22T04:58:23;95179.03;;;6.66;100.00
12775;BME280;6451;42.630;23.382;2022-10-22T05:00:51;95183.84;;;6.83;100.00
12775;BME280;6451;42.630;23.382;2022-10-22T05:03:18;95085.38;;;5.89;100.00
12775;BME280;6451;42.630;23.382;2022-10-22T05:05:45;95195.75;;;6.68;100.00
12775;BME280;6451;42.630;23.382;2022-10-22T05:08:12;95169.88;;;6.53;100.00
12775;BME280;6451;42.630;23.382;2022-10-22T05:10:39;95189.84;;;6.66;100.00
12775;BME280;6451;42.630;23.382;2022-10-22T05:13:06;95185.94;;;6.72;100.00
12775;BME280;6451;42.630;23.382;2022-10-22T05:15:33;95148.22;;;6.31;100.00
12775;BME280;6451;42.630;23.382;2022-10-22T05:18:02;95084.25;;;5.90;100.00
12775;BME280;6451;42.630;23.382;2022-10-22T05:20:29;95202.63;;;6.74;100.00
12775;BME280;6451;42.630;23.382;2022-10-22T05:22:56;95184.25;;;6.62;100.00
12775;BME280;6451;42.630;23.382;2022-10-22T05:25:23;95205.31;;;6.88;100.00
12775;BME280;6451;42.630;23.382;2022-10-22T05:27:50;95194.63;;;6.83;100.00
12775;BME280;6451;42.630;23.382;2022-10-22T05:30:17;95214.31;;;6.83;100.00
12775;BME280;6451;42.630;23.382;2022-10-22T05:32:45;95204.41;;;6.92;100.00
12775;BME280;6451;42.630;23.382;2022-10-22T05:35:14;95200.41;;;6.90;100.00
12775;BME280;6451;42.630;23.382;2022-10-22T05:37:41;95207.50;;;6.86;100.00
12775;BME280;6451;42.630;23.382;2022-10-22T05:40:08;95214.31;;;6.83;100.00
12775;BME280;6451;42.630;23.382;2022-10-22T05:42:35;95180.06;;;6.56;100.00
12775;BME280;6451;42.630;23.382;2022-10-22T05:45:03;95224.09;;;6.65;100.00
12775;BME280;6451;42.630;23.382;2022-10-22T05:47:30;95222.09;;;6.85;100.00
12775;BME280;6451;42.630;23.382;2022-10-22T05:49:56;95197.63;;;6.81;100.00
12775;BME280;6451;42.630;23.382;2022-10-22T05:52:25;95200.78;;;6.97;100.00
12775;BME280;6451;42.630;23.382;2022-10-22T05:54:52;95204.50;;;7.15;100.00
12775;BME280;6451;42.630;23.382;2022-10-22T05:57:20;95200.44;;;7.26;100.00
12775;BME280;6451;42.630;23.382;2022-10-22T05:59:48;95206.63;;;7.40;100.00
12775;BME280;6451;42.630;23.382;2022-10-22T06:02:15;95202.81;;;7.41;100.00
12775;BME280;6451;42.630;23.382;2022-10-22T06:04:42;95213.16;;;7.62;100.00
12775;BME280;6451;42.630;23.382;2022-10-22T06:07:13;95204.69;;;7.77;100.00
12775;BME280;6451;42.630;23.382;2022-10-22T06:09:42;95161.28;;;7.51;100.00
12775;BME280;6451;42.630;23.382;2022-10-22T06:12:10;95210.31;;;7.89;100.00
12775;BME280;6451;42.630;23.382;2022-10-22T06:14:38;95210.69;;;7.96;100.00
12775;BME280;6451;42.630;23.382;2022-10-22T06:17:05;95207.56;;;8.03;100.00
12775;BME280;6451;42.630;23.382;2022-10-22T06:19:32;95187.69;;;7.99;100.00
12775;BME280;6451;42.630;23.382;2022-10-22T06:21:59;95197.91;;;8.11;100.00
12775;BME280;6451;42.630;23.382;2022-10-22T06:24:25;95212.81;;;8.30;100.00
12775;BME280;6451;42.630;23.382;2022-10-22T06:26:54;95154.50;;;8.07;100.00
12775;BME280;6451;42.630;23.382;2022-10-22T06:29:20;95215.19;;;8.54;100.00
12775;BME280;6451;42.630;23.382;2022-10-22T06:31:47;95156.81;;;8.22;100.00
12775;BME280;6451;42.630;23.382;2022-10-22T06:34:15;95212.25;;;8.73;100.00
12775;BME280;6451;42.630;23.382;2022-10-22T06:36:44;95216.44;;;8.88;100.00
12775;BME280;6451;42.630;23.382;2022-10-22T06:39:12;95122.72;;;8.44;100.00
12775;BME280;6451;42.630;23.382;2022-10-22T06:41:39;95218.72;;;9.12;100.00
12775;BME280;6451;42.630;23.382;2022-10-22T06:44:13;95221.97;;;9.23;100.00
12775;BME280;6451;42.630;23.382;2022-10-22T06:46:40;95219.13;;;9.54;100.00
12775;BME280;6451;42.630;23.382;2022-10-22T06:49:11;95206.53;;;9.40;100.00
12775;BME280;6451;42.630;23.382;2022-10-22T06:51:38;95216.09;;;9.46;100.00
12775;BME280;6451;42.630;23.382;2022-10-22T06:54:05;95218.34;;;9.62;100.00
12775;BME280;6451;42.630;23.382;2022-10-22T06:56:32;95197.94;;;9.73;100.00
12775;BME280;6451;42.630;23.382;2022-10-22T06:58:58;95204.47;;;9.81;100.00
12775;BME280;6451;42.630;23.382;2022-10-22T07:01:29;95157.47;;;9.68;100.00
12775;BME280;6451;42.630;23.382;2022-10-22T07:03:58;95211.94;;;10.10;100.00
12775;BME280;6451;42.630;23.382;2022-10-22T07:06:26;95210.34;;;10.09;100.00
12775;BME280;6451;42.630;23.382;2022-10-22T07:08:53;95216.72;;;10.13;100.00
12775;BME280;6451;42.630;23.382;2022-10-22T07:11:22;95214.50;;;10.15;100.00
12775;BME280;6451;42.630;23.382;2022-10-22T07:13:49;95213.22;;;10.29;100.00
12775;BME280;6451;42.630;23.382;2022-10-22T07:16:17;95200.22;;;10.52;100.00
12775;BME280;6451;42.630;23.382;2022-10-22T07:18:46;95122.78;;;10.08;100.00
12775;BME280;6451;42.630;23.382;2022-10-22T07:21:14;95196.75;;;10.35;100.00
12775;BME280;6451;42.630;23.382;2022-10-22T07:23:43;95185.31;;;10.29;100.00
12775;BME280;6451;42.630;23.382;2022-10-22T07:26:12;95202.28;;;10.55;100.00
12775;BME280;6451;42.630;23.382;2022-10-22T07:28:39;95202.16;;;10.90;100.00
12775;BME280;6451;42.630;23.382;2022-10-22T07:31:07;95198.94;;;10.97;100.00
12775;BME280;6451;42.630;23.382;2022-10-22T07:33:35;95198.31;;;10.91;100.00
12775;BME280;6451;42.630;23.382;2022-10-22T07:36:06;95194.38;;;11.09;100.00
12775;BME280;6451;42.630;23.382;2022-10-22T07:38:34;95191.03;;;11.04;100.00
12775;BME280;6451;42.630;23.382;2022-10-22T07:41:02;95197.72;;;11.15;100.00
12775;BME280;6451;42.630;23.382;2022-10-22T07:43:29;95197.03;;;10.97;100.00
12775;BME280;6451;42.630;23.382;2022-10-22T07:45:56;95173.16;;;11.03;100.00
12775;BME280;6451;42.630;23.382;2022-10-22T07:48:24;95170.88;;;11.34;100.00
12775;BME280;6451;42.630;23.382;2022-10-22T07:50:51;95175.13;;;11.65;100.00
12775;BME280;6451;42.630;23.382;2022-10-22T07:53:20;95173.63;;;11.55;100.00
12775;BME280;6451;42.630;23.382;2022-10-22T07:55:48;95156.44;;;11.63;100.00
12775;BME280;6451;42.630;23.382;2022-10-22T07:58:15;95161.50;;;11.74;100.00
12775;BME280;6451;42.630;23.382;2022-10-22T08:00:43;95162.50;;;11.90;100.00
12775;BME280;6451;42.630;23.382;2022-10-22T08:03:11;95165.25;;;12.02;100.00
12775;BME280;6451;42.630;23.382;2022-10-22T08:05:40;95138.22;;;11.64;100.00
12775;BME280;6451;42.630;23.382;2022-10-22T08:08:08;95168.75;;;12.03;100.00
12775;BME280;6451;42.630;23.382;2022-10-22T08:10:37;95120.81;;;11.98;100.00
12775;BME280;6451;42.630;23.382;2022-10-22T08:13:04;95161.94;;;12.42;100.00
12775;BME280;6451;42.630;23.382;2022-10-22T08:15:31;95162.41;;;12.32;100.00
12775;BME280;6451;42.630;23.382;2022-10-22T08:17:59;95157.00;;;12.44;100.00
12775;BME280;6451;42.630;23.382;2022-10-22T08:20:26;95125.53;;;12.22;100.00
12775;BME280;6451;42.630;23.382;2022-10-22T08:22:53;95154.50;;;12.51;100.00
12775;BME280;6451;42.630;23.382;2022-10-22T08:25:29;95152.22;;;12.53;100.00
12775;BME280;6451;42.630;23.382;2022-10-22T08:27:59;95158.38;;;12.62;100.00
12775;BME280;6451;42.630;23.382;2022-10-22T08:30:26;95146.22;;;12.72;100.00
12775;BME280;6451;42.630;23.382;2022-10-22T08:32:54;95150.09;;;12.59;100.00
12775;BME280;6451;42.630;23.382;2022-10-22T08:35:21;95143.63;;;12.88;100.00
12775;BME280;6451;42.630;23.382;2022-10-22T08:37:48;95144.88;;;12.90;100.00
12775;BME280;6451;42.630;23.382;2022-10-22T08:40:22;95129.66;;;12.77;100.00
12775;BME280;6451;42.630;23.382;2022-10-22T08:43:04;95147.81;;;13.09;100.00
12775;BME280;6451;42.630;23.382;2022-10-22T08:45:39;95121.13;;;13.03;100.00
12775;BME280;6451;42.630;23.382;2022-10-22T08:48:19;95136.47;;;12.95;100.00
12775;BME280;6451;42.630;23.382;2022-10-22T08:50:51;95141.47;;;12.93;100.00
12775;BME280;6451;42.630;23.382;2022-10-22T08:53:21;95105.69;;;12.95;100.00
12775;BME280;6451;42.630;23.382;2022-10-22T08:55:52;95111.84;;;13.04;100.00
12775;BME280;6451;42.630;23.382;2022-10-22T08:58:24;95147.56;;;13.39;100.00
12775;BME280;6451;42.630;23.382;2022-10-22T09:00:58;95142.78;;;13.48;100.00
12775;BME280;6451;42.630;23.382;2022-10-22T09:03:35;95120.25;;;13.63;100.00
12775;BME280;6451;42.630;23.382;2022-10-22T09:06:10;95158.19;;;13.69;100.00
12775;BME280;6451;42.630;23.382;2022-10-22T09:08:38;95128.41;;;13.63;100.00
12775;BME280;6451;42.630;23.382;2022-10-22T09:11:15;95120.72;;;13.66;100.00
12775;BME280;6451;42.630;23.382;2022-10-22T09:13:45;95117.63;;;13.67;100.00
12775;BME280;6451;42.630;23.382;2022-10-22T09:16:18;95095.59;;;13.60;100.00
12775;BME280;6451;42.630;23.382;2022-10-22T09:18:54;95119.78;;;13.61;100.00
12775;BME280;6451;42.630;23.382;2022-10-22T09:21:32;95120.28;;;13.79;100.00
12775;BME280;6451;42.630;23.382;2022-10-22T09:24:08;95115.34;;;13.69;100.00
12775;BME280;6451;42.630;23.382;2022-10-22T09:26:39;95123.56;;;13.85;100.00
12775;BME280;6451;42.630;23.382;2022-10-22T09:29:13;95130.38;;;13.91;100.00
12775;BME280;6451;42.630;23.382;2022-10-22T09:31:43;95128.47;;;14.07;100.00
12775;BME280;6451;42.630;23.382;2022-10-22T09:34:13;95127.41;;;13.96;100.00
12775;BME280;6451;42.630;23.382;2022-10-22T09:36:40;95121.59;;;13.98;100.00
12775;BME280;6451;42.630;23.382;2022-10-22T09:39:21;95077.94;;;13.98;100.00
12775;BME280;6451;42.630;23.382;2022-10-22T09:41:48;95111.13;;;14.59;100.00
12775;BME280;6451;42.630;23.382;2022-10-22T09:44:17;95112.25;;;14.42;100.00
12775;BME280;6451;42.630;23.382;2022-10-22T09:46:44;95087.78;;;14.46;100.00
12775;BME280;6451;42.630;23.382;2022-10-22T09:49:14;95104.44;;;14.72;100.00
12775;BME280;6451;42.630;23.382;2022-10-22T09:51:49;95094.13;;;14.66;100.00
12775;BME280;6451;42.630;23.382;2022-10-22T09:54:18;95089.00;;;14.80;100.00
12775;BME280;6451;42.630;23.382;2022-10-22T09:56:50;95074.16;;;14.97;100.00
12775;BME280;6451;42.630;23.382;2022-10-22T09:59:26;95077.25;;;14.95;100.00
12775;BME280;6451;42.630;23.382;2022-10-22T10:02:02;95090.56;;;14.97;100.00
12775;BME280;6451;42.630;23.382;2022-10-22T10:04:33;95085.50;;;15.15;100.00
12775;BME280;6451;42.630;23.382;2022-10-22T10:07:01;95082.06;;;15.02;100.00
12775;BME280;6451;42.630;23.382;2022-10-22T10:09:30;95082.75;;;15.15;100.00
12775;BME280;6451;42.630;23.382;2022-10-22T10:12:07;95061.94;;;15.10;100.00
12775;BME280;6451;42.630;23.382;2022-10-22T10:14:47;95037.69;;;14.89;100.00
12775;BME280;6451;42.630;23.382;2022-10-22T10:17:28;95071.25;;;15.25;100.00
12775;BME280;6451;42.630;23.382;2022-10-22T10:20:08;95058.63;;;15.01;100.00
12775;BME280;6451;42.630;23.382;2022-10-22T10:22:46;95076.31;;;14.88;100.00
12775;BME280;6451;42.630;23.382;2022-10-22T10:25:36;95076.78;;;15.09;100.00
12775;BME280;6451;42.630;23.382;2022-10-22T10:28:17;95072.78;;;15.22;100.00
12775;BME280;6451;42.630;23.382;2022-10-22T10:30:53;95064.84;;;15.17;100.00
12775;BME280;6451;42.630;23.382;2022-10-22T10:33:30;95035.28;;;15.23;100.00
12775;BME280;6451;42.630;23.382;2022-10-22T10:36:03;95033.72;;;15.22;100.00
12775;BME280;6451;42.630;23.382;2022-10-22T10:38:38;95050.13;;;15.41;100.00
12775;BME280;6451;42.630;23.382;2022-10-22T10:41:16;95053.13;;;15.55;100.00
12775;BME280;6451;42.630;23.382;2022-10-22T10:43:55;95028.44;;;15.33;100.00
12775;BME280;6451;42.630;23.382;2022-10-22T10:46:32;95025.88;;;15.40;100.00
12775;BME280;6451;42.630;23.382;2022-10-22T10:49:07;95028.56;;;15.75;100.00
12775;BME280;6451;42.630;23.382;2022-10-22T10:51:41;95030.88;;;15.73;100.00
12775;BME280;6451;42.630;23.382;2022-10-22T10:54:20;95025.56;;;15.83;100.00
12775;BME280;6451;42.630;23.382;2022-10-22T10:56:53;95017.13;;;15.92;100.00
12775;BME280;6451;42.630;23.382;2022-10-22T10:59:33;95006.94;;;15.70;100.00
12775;BME280;6451;42.630;23.382;2022-10-22T11:05:20;95000.66;;;16.11;100.00
12775;BME280;6451;42.630;23.382;2022-10-22T11:07:55;94995.84;;;16.28;100.00
12775;BME280;6451;42.630;23.382;2022-10-22T11:10:28;94984.41;;;16.22;100.00
12775;BME280;6451;42.630;23.382;2022-10-22T11:13:00;94988.22;;;16.40;100.00
12775;BME280;6451;42.630;23.382;2022-10-22T11:15:30;94978.69;;;16.31;100.00
12775;BME280;6451;42.630;23.382;2022-10-22T11:18:04;94975.69;;;16.39;98.87
12775;BME280;6451;42.630;23.382;2022-10-22T11:20:42;94977.19;;;16.33;99.65
12775;BME280;6451;42.630;23.382;2022-10-22T11:23:16;94960.38;;;16.35;99.09
12775;BME280;6451;42.630;23.382;2022-10-22T11:25:46;94960.63;;;16.53;98.27
12775;BME280;6451;42.630;23.382;2022-10-22T11:28:17;94956.72;;;16.54;97.81
12775;BME280;6451;42.630;23.382;2022-10-22T11:30:51;94956.16;;;16.67;96.45
12775;BME280;6451;42.630;23.382;2022-10-22T11:33:21;94948.47;;;16.77;96.01
12775;BME280;6451;42.630;23.382;2022-10-22T11:35:50;94932.97;;;16.61;96.61
12775;BME280;6451;42.630;23.382;2022-10-22T11:38:21;94919.25;;;16.61;97.14
12775;BME280;6451;42.630;23.382;2022-10-22T11:40:55;94926.34;;;16.89;96.31
12775;BME280;6451;42.630;23.382;2022-10-22T11:43:30;94931.63;;;16.75;96.79
12775;BME280;6451;42.630;23.382;2022-10-22T11:49:03;94892.78;;;16.69;94.64
12775;BME280;6451;42.630;23.382;2022-10-22T11:51:35;94796.66;;;16.25;93.28
12775;BME280;6451;42.630;23.382;2022-10-22T11:54:28;94928.19;;;17.11;91.35
12775;BME280;6451;42.630;23.382;2022-10-22T11:57:15;94930.94;;;17.15;92.85
12775;BME280;6451;42.630;23.382;2022-10-22T11:59:47;94914.41;;;17.08;92.68
12775;BME280;6451;42.630;23.382;2022-10-22T12:02:33;94931.88;;;17.26;91.07
12775;BME280;6451;42.630;23.382;2022-10-22T12:05:36;94929.56;;;17.32;91.04
12775;BME280;6451;42.630;23.382;2022-10-22T12:08:20;94909.50;;;17.24;90.20
12775;BME280;6451;42.630;23.382;2022-10-22T12:10:56;94924.09;;;17.32;88.98
12775;BME280;6451;42.630;23.382;2022-10-22T12:13:27;94915.53;;;17.37;87.66
12775;BME280;6451;42.630;23.382;2022-10-22T12:15:58;94917.28;;;17.56;87.46
12775;BME280;6451;42.630;23.382;2022-10-22T12:18:41;94881.53;;;17.45;86.70
12775;BME280;6451;42.630;23.382;2022-10-22T12:21:11;94890.31;;;17.61;86.83
12775;BME280;6451;42.630;23.382;2022-10-22T12:23:39;94903.31;;;17.68;85.19
12775;BME280;6451;42.630;23.382;2022-10-22T12:26:21;94886.28;;;17.89;84.34
12775;BME280;6451;42.630;23.382;2022-10-22T12:28:48;94887.78;;;17.83;83.22
12775;BME280;6451;42.630;23.382;2022-10-22T12:31:16;94861.84;;;17.73;82.36
12775;BME280;6451;42.630;23.382;2022-10-22T12:33:43;94878.53;;;18.01;81.71
12775;BME280;6451;42.630;23.382;2022-10-22T12:36:16;94900.19;;;18.10;81.53
12775;BME280;6451;42.630;23.382;2022-10-22T12:38:45;94869.13;;;18.02;82.83
12775;BME280;6451;42.630;23.382;2022-10-22T12:41:13;94891.91;;;18.06;82.61
12775;BME280;6451;42.630;23.382;2022-10-22T12:43:40;94880.53;;;18.08;81.49
12775;BME280;6451;42.630;23.382;2022-10-22T12:46:10;94886.03;;;18.08;81.92
12775;BME280;6451;42.630;23.382;2022-10-22T12:48:41;94869.94;;;18.03;82.14
12775;BME280;6451;42.630;23.382;2022-10-22T12:51:15;94888.84;;;18.15;79.38
12775;BME280;6451;42.630;23.382;2022-10-22T12:53:45;94881.69;;;18.03;79.41
12775;BME280;6451;42.630;23.382;2022-10-22T12:56:15;94878.53;;;18.01;79.41
12775;BME280;6451;42.630;23.382;2022-10-22T12:58:45;94864.03;;;18.04;78.82
12775;BME280;6451;42.630;23.382;2022-10-22T13:01:14;94869.19;;;18.10;78.68
12775;BME280;6451;42.630;23.382;2022-10-22T13:03:44;94870.47;;;18.26;79.04
12775;BME280;6451;42.630;23.382;2022-10-22T13:06:13;94823.94;;;17.93;78.64
12775;BME280;6451;42.630;23.382;2022-10-22T13:08:41;94869.31;;;18.27;79.38
12775;BME280;6451;42.630;23.382;2022-10-22T13:11:09;94872.41;;;18.22;81.52
12775;BME280;6451;42.630;23.382;2022-10-22T13:13:41;94836.91;;;17.96;82.33
12775;BME280;6451;42.630;23.382;2022-10-22T13:16:18;94870.47;;;18.26;81.12
12775;BME280;6451;42.630;23.382;2022-10-22T13:18:47;94835.47;;;18.16;80.59
12775;BME280;6451;42.630;23.382;2022-10-22T13:21:31;94859.16;;;18.35;80.10